Val-d'Or Airport
CYVO : rendu visible

Aérodrome :











RETROUVEZ-NOUS SUR...

 
LOGIN :

S'inscrire | Disclaimer

   EN    FR    IT 

 









Légende :    VFR   VFR Marginal   IFR   IFR Intensif   IFR Très Intensif
Visi : 
Plafond : 
>= 8 km
>= 3000ft
5 à 8 km
1000 à 3000 ft
1500m à 5 km
500 à 1000 ft
800 à 1500m
200 à 500 ft
< 800m
< 200 ft
Symboles :   Orages  Brouillard  Fortes neiges  Fortes précipitations  Vent > 20 kt






- Altitude de l'aérodrome : 1107 ft
- Code IATA : YVO


CYVO - Val-d'Or

DERNIER METAR :
  • 202100Z 33004KT 300V360 15SM FEW013 SCT029 BKN045 02/01 A3032 RMK CF1CU2SC4 SLP287

METARs EXPIRÉS :
  • 202055Z 33005KT 290V360 15SM FEW019 SCT024 BKN035 02/01 A3032 RMK CF1CU2SC4 SLP289
  • 202000Z 30004KT 270V330 10SM -SHSN FEW013 OVC020 02/01 A3030 RMK SF2SC6 CVCTV CLD EMBD SLP283
  • 201900Z 29005KT 260V330 15SM -SHSN FEW010 BKN014 02/01 A3030 RMK SF2SC5 CVCTV CLD EMBD SLP283

TAF TAF CYVO
Valide du 20 à 18h jusqu'au 21 à 06h UTC


201738Z 2018/2106 27006KT 4SM -SHSN BR BKN008 OVC015
TEMPO 2018/2020 P6SM NSW OVC015
FM202000 32008KT P6SM BKN020
TEMPO 2020/2022 BKN030
FM202200 33005KT P6SM SCT030
BECMG 2022/2024 VRB03KT
FM210300 07005KT P6SM SCT020 BKN150
TEMPO 2103/2106 BKN020
BECMG 2104/2106 11006KT RMK NXT FCST BY 210000Z
FIR CZUL / Amérique du Nord



MET'MAP, la Météo Aéronautique d'un coup d'oeil ! - Copyright ORBIFLY Décembre 2007 - Disclaimer

ORBIFLY MET'MAP TEAM :

Programmation & Développement : Alexandra Zaïnal
Sur une idée originale de : Baudouin d'Aumeries
Assistance à la programmation : Marc-Olivier Méhu
Soutien technique & logistique : Manuel Goepfert

Contact : metmap@orbifly.com




SOURCES & CREDITS :

   NOAA       Earth
Advisory